Orléans – Saint-Denis-de-l'Hôtel Airport

LFOZ · Loiret, Centre, Frankrijk

METAR historie LFOZ · Orléans – Saint-Denis-de-l'Hôtel Airport

Hieronder zie je METAR's van de afgelopen dagen. Kies een jaar om door oudere METAR's te bladeren, vanaf het jaar 2007.

30 november 2022

Tijd Code Weer Temp. Zicht Plafond Wind METAR/SPECI
01:00
L
5 °C 1 km - 060° 060° 3 kt METAR LFOZ 300000Z AUTO 06003KT 030V090 1100 1000 R23/1200U BR VV/// 05/05 Q1022
00:30
L
5 °C 1 km - 060° 060° 8 kt METAR LFOZ 292330Z AUTO 06008KT 030V090 1000 R23/1100D BR VV/// 05/05 Q1022
00:00
L
5 °C 5 km 400 ft 060° 060° 5 kt METAR LFOZ 292300Z AUTO 06005KT 5000 BR BKN004 OVC022 05/05 Q1022

29 november 2022

Tijd Code Weer Temp. Zicht Plafond Wind METAR/SPECI
23:30
L
5 °C 5 km 400 ft 030° 030° 4 kt METAR LFOZ 292230Z AUTO 03004KT 360V060 5000 BR BKN004 OVC023 05/05 Q1022
23:00
L
3 °C 900 m - Var Var 2 kt METAR LFOZ 292200Z AUTO VRB02KT 1000 0900 R23/1700D BCFG FEW004 SCT021 03/02 Q1022
22:30
L
4 °C 600 m - Var 000° 0 kt METAR LFOZ 292130Z AUTO 00000KT 0700 0600 R23/1000U FG FEW007 04/04 Q1022
22:00
I
5 °C 3,9 km 1.800 ft 320° 320° 1 kt METAR LFOZ 292100Z AUTO 32001KT 3900 BR OVC018 05/05 Q1022
21:30
L
4 °C 900 m 1.500 ft 300° 300° 2 kt METAR LFOZ 292030Z AUTO 30002KT 1400 0900 R23/1800U BCFG BKN015 OVC039 04/04 Q1021
21:00
I
4 °C 2,7 km 3.900 ft Var 000° 0 kt METAR LFOZ 292000Z AUTO 00000KT 2700 BR FEW001 SCT017 OVC039 04/04 Q1021
20:30
L
5 °C 1,2 km 4.000 ft Var 000° 0 kt METAR LFOZ 291930Z AUTO 00000KT 1300 1200 R23/1500D BR FEW019 OVC040 05/05 Q1021
20:00
I
5 °C 3,1 km 3.900 ft Var 000° 0 kt METAR LFOZ 291900Z AUTO 00000KT 3100 BR FEW014 OVC039 05/05 Q1021
19:30
L
5 °C 800 m 3.800 ft 350° 350° 1 kt METAR LFOZ 291830Z AUTO 35001KT 0900 0800 R23/0900D FG OVC038 05/05 Q1021
19:00
L
5 °C 800 m 3.900 ft Var Var 1 kt METAR LFOZ 291800Z AUTO VRB01KT 0800 R23/1100D FG FEW006 BKN039 05/04 Q1021
18:30
L
6 °C 1,1 km - Var Var 3 kt METAR LFOZ 291730Z AUTO VRB03KT 1800 1100 R23/1600D BR VV/// 06/06 Q1021
18:00
M
7 °C 7 km 2.800 ft 260° 260° 2 kt METAR LFOZ 291700Z AUTO 26002KT 7000 FEW004 BKN028 BKN036 07/06 Q1021
17:30
M
7 °C 10 km+ 2.800 ft 230° 230° 3 kt METAR LFOZ 291630Z AUTO 23003KT 9999 BKN028 OVC033 07/07 Q1020
17:00
M
7 °C 10 km+ 2.500 ft Var Var 2 kt METAR LFOZ 291600Z AUTO VRB02KT 9999 BKN025 OVC031 07/07 Q1020
16:30
M
7 °C 10 km+ 1.700 ft Var Var 2 kt METAR LFOZ 291530Z AUTO VRB02KT 9999 FEW006 BKN017 OVC023 07/06 Q1020
16:00
M
8 °C 10 km+ 1.900 ft 280° 280° 3 kt METAR LFOZ 291500Z AUTO 28003KT 9999 FEW005 OVC019 08/07 Q1020
15:30
M
7 °C 10 km+ 1.800 ft Var 000° 0 kt METAR LFOZ 291430Z AUTO 00000KT 9999 OVC018 07/07 Q1020
15:00
M
7 °C 10 km+ 1.700 ft Var 000° 0 kt METAR LFOZ 291400Z AUTO 00000KT 9999 FEW008 OVC017 07/07 Q1020
14:30
M
7 °C 10 km+ 1.200 ft Var Var 2 kt METAR LFOZ 291330Z AUTO VRB02KT 9999 SCT004 OVC012 07/07 Q1020
14:00
L
7 °C 3,8 km 300 ft Var 000° 0 kt METAR LFOZ 291300Z AUTO 00000KT 3800 BR OVC003 07/07 Q1020
13:30
L
7 °C 3,7 km 300 ft Var Var 2 kt METAR LFOZ 291230Z AUTO VRB02KT 3700 BR OVC003 07/07 Q1019
13:00
L
7 °C 7 km 300 ft Var Var 2 kt METAR LFOZ 291200Z AUTO VRB02KT 7000 OVC003 07/06 Q1019
12:30
L
6 °C 3,8 km 300 ft 300° 300° 3 kt METAR LFOZ 291130Z AUTO 30003KT 3800 BR OVC003 06/06 Q1019
12:00
L
0 °C 4 km 300 ft 280° 280° 3 kt METAR LFOZ 291100Z AUTO 28003KT 240V320 4000 BR OVC003 ///// Q1019
11:30
L
0 °C 3,9 km 300 ft 260° 260° 4 kt METAR LFOZ 291030Z AUTO 26004KT 3900 BR OVC003 ///// Q1019
11:00
L
0 °C 4,4 km 300 ft 270° 270° 3 kt METAR LFOZ 291000Z AUTO 27003KT 4400 BR OVC003 ///// Q1019
10:30
L
0 °C 5 km 300 ft Var Var 3 kt METAR LFOZ 290930Z AUTO VRB03KT 5000 BR OVC003 ///// Q1019
10:00
L
0 °C 5 km 300 ft Var Var 3 kt METAR LFOZ 290900Z AUTO VRB03KT 5000 BR OVC003 ///// Q1018
09:30
L
0 °C 4,7 km 200 ft 230° 230° 3 kt METAR LFOZ 290830Z AUTO 23003KT 4700 BR OVC002 ///// Q1018
09:00
L
0 °C 4,9 km 300 ft 230° 230° 2 kt METAR LFOZ 290800Z AUTO 23002KT 4900 BR OVC003 ///// Q1018
08:30
L
0 °C 5 km 300 ft 250° 250° 3 kt METAR LFOZ 290730Z AUTO 25003KT 5000 BR OVC003 ///// Q1018
08:00
L
0 °C 7 km 300 ft 260° 260° 3 kt METAR LFOZ 290700Z AUTO 26003KT 7000 OVC003 ///// Q1018
07:30
L
0 °C 9 km 400 ft 250° 250° 2 kt METAR LFOZ 290630Z AUTO 25002KT 9000 OVC004/// ///TCU ///// Q1017
07:00
L
0 °C 10 km+ 400 ft 260° 260° 3 kt METAR LFOZ 290600Z AUTO 26003KT 9999 OVC004 ///// Q1017
06:30
L
0 °C 7 km 300 ft 240° 240° 3 kt METAR LFOZ 290530Z AUTO 24003KT 7000 OVC003/// ///TCU ///// Q1017
06:00
L
0 °C 7 km 300 ft 250° 250° 4 kt METAR LFOZ 290500Z AUTO 25004KT 7000 OVC003/// ///TCU ///// Q1017
05:30
L
0 °C 7 km 300 ft 250° 250° 3 kt METAR LFOZ 290430Z AUTO 25003KT 230V290 7000 OVC003 ///// Q1016
05:00
L
0 °C 8 km 400 ft 250° 250° 4 kt METAR LFOZ 290400Z AUTO 25004KT 8000 OVC004/// ///TCU ///// Q1016
04:30
L
0 °C 9 km 400 ft 260° 260° 4 kt METAR LFOZ 290330Z AUTO 26004KT 9000 OVC004 ///// Q1016
04:00
L
0 °C 10 km+ 400 ft 250° 250° 4 kt METAR LFOZ 290300Z AUTO 25004KT 9999 OVC004 ///// Q1016
03:30
L
0 °C 10 km+ 400 ft 250° 250° 5 kt METAR LFOZ 290230Z AUTO 25005KT 220V280 9999 OVC004/// ///TCU ///// Q1015
03:00
I
0 °C 10 km+ 600 ft 250° 250° 4 kt METAR LFOZ 290200Z AUTO 25004KT 9999 OVC006 ///// Q1015
02:30
I
0 °C 10 km+ 500 ft 260° 260° 5 kt METAR LFOZ 290130Z AUTO 26005KT 9999 OVC005 ///// Q1015
02:00
I
0 °C 10 km+ 500 ft 260° 260° 3 kt METAR LFOZ 290100Z AUTO 26003KT 220V290 9999 -RA OVC005/// ///TCU ///// Q1015
01:30
I
0 °C 10 km+ 700 ft 260° 260° 4 kt METAR LFOZ 290030Z AUTO 26004KT 9999 OVC007/// ///TCU ///// Q1015
01:00
I
0 °C 10 km+ 800 ft 250° 250° 5 kt METAR LFOZ 290000Z AUTO 25005KT 220V280 9999 OVC008/// ///TCU ///// Q1015
00:30
I
0 °C 10 km+ 700 ft 280° 280° 5 kt METAR LFOZ 282330Z AUTO 28005KT 250V310 9999 OVC007/// ///CB ///// Q1015
00:00
I
0 °C 10 km+ 900 ft 250° 250° 6 kt METAR LFOZ 282300Z AUTO 25006KT 9999 BKN009/// BKN015/// OVC032/// ///CB ///// Q1015

28 november 2022

Tijd Code Weer Temp. Zicht Plafond Wind METAR/SPECI
23:30
M
0 °C 7 km 4.300 ft 250° 250° 6 kt METAR LFOZ 282230Z AUTO 25006KT 7000 +RA FEW009/// SCT015/// BKN043/// ///CB ///// Q1015
23:00
V
0 °C 10 km+ 4.000 ft 250° 250° 5 kt METAR LFOZ 282200Z AUTO 25005KT 9999 SCT012/// BKN040/// OVC050/// ///CB ///// Q1015
22:30
V
0 °C 10 km+ 5.000 ft 250° 250° 5 kt METAR LFOZ 282130Z AUTO 25005KT 9999 SCT021/// SCT038/// OVC050/// ///TCU ///// Q1015
22:00
M
0 °C 10 km+ 2.000 ft 240° 240° 6 kt METAR LFOZ 282100Z AUTO 24006KT 9999 BKN020 BKN042 OVC050 ///// Q1015
21:30
V
0 °C 10 km+ 5.000 ft 230° 230° 5 kt METAR LFOZ 282030Z AUTO 23005KT 9999 FEW036 BKN050 BKN160 ///// Q1014
21:00
V
0 °C 10 km+ 4.500 ft 240° 240° 6 kt METAR LFOZ 282000Z AUTO 24006KT 9999 BKN045 OVC160 ///// Q1014
20:30
V
0 °C 10 km+ 4.300 ft 240° 240° 5 kt METAR LFOZ 281930Z AUTO 24005KT 9999 FEW033 BKN043 OVC049 ///// Q1014
20:00
M
0 °C 10 km+ 2.600 ft 240° 240° 5 kt METAR LFOZ 281900Z AUTO 24005KT 9999 BKN026 BKN036 OVC049 ///// Q1014
19:30
V
0 °C 10 km+ 3.200 ft 240° 240° 6 kt METAR LFOZ 281830Z AUTO 24006KT 9999 SCT025 BKN032 BKN056 ///// Q1014
19:00
V
0 °C 10 km+ 15.000 ft 210° 210° 5 kt METAR LFOZ 281800Z AUTO 21005KT 9999 FEW027 SCT058 BKN150 ///// Q1014
18:30
V
0 °C 10 km+ 4.700 ft 210° 210° 3 kt METAR LFOZ 281730Z AUTO 21003KT 9999 FEW029 SCT039 BKN047 ///// Q1013
18:00
V
0 °C 10 km+ 17.000 ft 180° 180° 3 kt METAR LFOZ 281700Z AUTO 18003KT 9999 SCT030/// SCT060/// BKN170/// ///TCU ///// Q1013
17:30
V
9 °C 10 km+ - 200° 200° 4 kt METAR LFOZ 281630Z AUTO 20004KT 9999 ///TCU 09/07 Q1013
17:00
V
9 °C 10 km+ 5.400 ft 220° 220° 9 kt METAR LFOZ 281600Z AUTO 22009KT 9999 -RA FEW020/// SCT031/// OVC054/// ///TCU 09/07 Q1013
16:30
M
0 °C 10 km+ 2.100 ft Var Var 1 kt METAR LFOZ 281530Z AUTO VRB01KT 9999 BKN021/// BKN029/// BKN034/// ///TCU ///// Q1013
16:00
M
0 °C 10 km+ 2.000 ft 330° 330° 5 kt METAR LFOZ 281500Z AUTO 33005KT 270V360 9999 BKN020/// BKN026/// BKN032/// ///TCU ///// Q1013
15:30
M
0 °C 10 km+ 2.900 ft 220° 220° 6 kt METAR LFOZ 281430Z AUTO 22006KT 190V250 9999 SCT021/// BKN029/// BKN036/// ///TCU ///// Q1013
15:00
V
0 °C 10 km+ 6.200 ft 240° 240° 6 kt METAR LFOZ 281400Z AUTO 24006KT 9999 FEW021/// OVC062/// ///TCU ///// Q1013
14:30
M
0 °C 10 km+ 1.700 ft 220° 220° 10 kt METAR LFOZ 281330Z AUTO 22010KT 9999 // BKN017 BKN029 BKN054 ///// Q1013
14:00
M
11 °C 10 km+ 1.300 ft 230° 230° 9 kt METAR LFOZ 281300Z AUTO 23009KT 9999 BKN013 BKN019 BKN029 11/M16 Q1013
13:30
M
11 °C 10 km+ 1.100 ft 230° 230° 6 kt METAR LFOZ 281230Z AUTO 23006KT 200V260 9999 BKN011 OVC018 11/09 Q1013
13:00
M
10 °C 10 km+ 1.000 ft 240° 240° 8 kt METAR LFOZ 281200Z AUTO 24008KT 9999 BKN010 OVC015 10/08 Q1013
12:30
M
10 °C 10 km+ 1.000 ft 230° 230° 8 kt METAR LFOZ 281130Z AUTO 23008KT 210V270 9999 BKN010 OVC014 10/08 Q1013
12:00
I
10 °C 10 km+ 900 ft 240° 240° 7 kt METAR LFOZ 281100Z AUTO 24007KT 9999 BKN009 BKN014 BKN032 10/08 Q1013
11:30
I
10 °C 10 km+ 900 ft 240° 240° 8 kt METAR LFOZ 281030Z AUTO 24008KT 220V280 9999 BKN009 BKN210 10/08 Q1014
11:00
I
10 °C 10 km+ 800 ft 250° 250° 8 kt METAR LFOZ 281000Z AUTO 25008KT 9999 OVC008 10/08 Q1014
10:30
M
9 °C 10 km+ 1.000 ft 250° 250° 6 kt METAR LFOZ 280930Z AUTO 25006KT 220V280 9999 OVC010 09/08 Q1014
10:00
M
9 °C 10 km+ 1.300 ft 260° 260° 5 kt METAR LFOZ 280900Z AUTO 26005KT 9999 SCT006 OVC013 09/08 Q1013
09:30
I
9 °C 10 km+ 600 ft 260° 260° 5 kt METAR LFOZ 280830Z AUTO 26005KT 9999 OVC006 09/08 Q1013
09:00
I
9 °C 10 km+ 500 ft 270° 270° 7 kt METAR LFOZ 280800Z AUTO 27007KT 9999 OVC005 09/08 Q1013
08:30
L
9 °C 10 km+ 400 ft 280° 280° 7 kt METAR LFOZ 280730Z AUTO 28007KT 9999 OVC004 09/08 Q1013
08:00
L
8 °C 10 km+ 400 ft 270° 270° 7 kt METAR LFOZ 280700Z AUTO 27007KT 9999 OVC004 08/08 Q1012
07:30
L
8 °C 10 km+ 300 ft 250° 250° 5 kt METAR LFOZ 280630Z AUTO 25005KT 220V280 9999 OVC003/// ///TCU 08/08 Q1012
07:00
L
8 °C 10 km+ 300 ft 240° 240° 5 kt METAR LFOZ 280600Z AUTO 24005KT 9999 OVC003 08/08 Q1012
06:30
L
8 °C 10 km+ 300 ft 250° 250° 5 kt METAR LFOZ 280530Z AUTO 25005KT 9999 -DZ OVC003 08/08 Q1012
06:00
L
8 °C 7 km 300 ft 250° 250° 4 kt METAR LFOZ 280500Z AUTO 25004KT 7000 -DZ OVC003 08/08 Q1012
05:30
L
8 °C 10 km+ 400 ft 240° 240° 5 kt METAR LFOZ 280430Z AUTO 24005KT 9999 -DZ OVC004 08/08 Q1012
05:00
L
8 °C 10 km+ 400 ft 230° 230° 6 kt METAR LFOZ 280400Z AUTO 23006KT 9999 OVC004/// ///TCU 08/08 Q1012
04:30
L
8 °C 10 km+ 400 ft 210° 210° 4 kt METAR LFOZ 280330Z AUTO 21004KT 9999 -RA OVC004 08/08 Q1012
04:00
I
8 °C 10 km+ 500 ft 200° 200° 5 kt METAR LFOZ 280300Z AUTO 20005KT 9999 -RA OVC005/// ///TCU 08/07 Q1012
03:30
I
8 °C 8 km 600 ft 220° 220° 4 kt METAR LFOZ 280230Z AUTO 22004KT 8000 -RA OVC006/// ///TCU 08/07 Q1012
03:00
I
8 °C 10 km+ 700 ft 220° 220° 6 kt METAR LFOZ 280200Z AUTO 22006KT 9999 -RA BKN007/// OVC011/// ///TCU 08/07 Q1012
02:30
M
8 °C 7 km 1.000 ft 210° 210° 6 kt METAR LFOZ 280130Z AUTO 21006KT 7000 -RA OVC010/// ///TCU 08/07 Q1013
02:00
V
8 °C 10 km+ 4.500 ft 210° 210° 4 kt METAR LFOZ 280100Z AUTO 21004KT 9999 -RA SCT011/// SCT029/// BKN045/// ///TCU 08/07 Q1013
01:30
M
8 °C 10 km+ 1.600 ft 230° 230° 6 kt METAR LFOZ 280030Z AUTO 23006KT 9999 -RA BKN016/// BKN024/// OVC070/// ///TCU 08/07 Q1013
01:00
V
8 °C 10 km+ - 230° 230° 7 kt METAR LFOZ 280000Z AUTO 23007KT 9999 -RA ///TCU 08/07 Q1013
00:30
V
8 °C 10 km+ - 210° 210° 7 kt METAR LFOZ 272330Z AUTO 21007KT 9999 -RA NSC 08/07 Q1013
00:00
V
8 °C 10 km+ 6.600 ft 210° 210° 5 kt METAR LFOZ 272300Z AUTO 21005KT 9999 -RA SCT014/// SCT054/// BKN066/// ///TCU 08/07 Q1013

27 november 2022

Tijd Code Weer Temp. Zicht Plafond Wind METAR/SPECI
23:30
M
8 °C 10 km+ 1.500 ft 190° 190° 6 kt METAR LFOZ 272230Z AUTO 19006KT 9999 BKN015/// OVC072/// ///CB 08/07 Q1013
23:00
V
8 °C 10 km+ 6.600 ft 190° 190° 6 kt METAR LFOZ 272200Z AUTO 19006KT 9999 -RA FEW015/// SCT027/// OVC066/// ///CB 08/07 Q1013
22:30
V
8 °C 10 km+ 3.800 ft 190° 190° 3 kt METAR LFOZ 272130Z AUTO 19003KT 9999 FEW031/// BKN038/// BKN044/// ///CB 08/07 Q1014
22:00
V
8 °C 10 km+ - 150° 150° 4 kt METAR LFOZ 272100Z AUTO 15004KT 9999 -RA ///TCU 08/07 Q1013
21:30
V
8 °C 10 km+ 5.600 ft 190° 190° 4 kt METAR LFOZ 272030Z AUTO 19004KT 9999 -RA FEW049/// BKN056/// BKN070/// ///TCU 08/07 Q1014
21:00
V
8 °C 10 km+ - 200° 200° 5 kt METAR LFOZ 272000Z AUTO 20005KT 9999 -RA ///CB 08/07 Q1014
20:30
V
9 °C 10 km+ 5.200 ft 220° 220° 8 kt METAR LFOZ 271930Z AUTO 22008KT 9999 -RA FEW046/// BKN052/// BKN068/// ///CB 09/06 Q1014
20:00
V
9 °C 10 km+ 7.000 ft 200° 200° 6 kt METAR LFOZ 271900Z AUTO 20006KT 9999 -RA FEW035/// SCT054/// BKN070/// ///TCU 09/06 Q1014
19:30
V
10 °C 10 km+ 3.200 ft 190° 190° 5 kt METAR LFOZ 271830Z AUTO 19005KT 9999 BKN032/// OVC070/// ///TCU 10/04 Q1014
19:00
V
10 °C 10 km+ 7.000 ft 170° 170° 4 kt METAR LFOZ 271800Z AUTO 17004KT 9999 FEW029/// BKN070/// OVC088/// ///TCU 10/04 Q1014
18:30
V
9 °C 10 km+ - 150° 150° 3 kt METAR LFOZ 271730Z AUTO 15003KT 9999 ///TCU 09/05 Q1015
18:00
V
9 °C 10 km+ 10.000 ft 150° 150° 4 kt METAR LFOZ 271700Z AUTO 15004KT 9999 FEW025/// BKN100/// BKN200/// ///TCU 09/05 Q1015
17:30
M
10 °C 10 km+ 2.600 ft 160° 160° 3 kt METAR LFOZ 271630Z AUTO 16003KT 120V180 9999 BKN026 BKN032 BKN068 10/05 Q1015
17:00
M
10 °C 10 km+ 2.500 ft 160° 160° 3 kt METAR LFOZ 271600Z AUTO 16003KT 9999 BKN025 BKN030 OVC150 10/04 Q1015
16:30
M
11 °C 10 km+ 2.800 ft 170° 170° 4 kt METAR LFOZ 271530Z AUTO 17004KT 140V210 9999 OVC028 11/03 Q1015
16:00
M
11 °C 10 km+ 2.900 ft 160° 160° 6 kt METAR LFOZ 271500Z AUTO 16006KT 130V190 9999 OVC029 11/03 Q1016
15:30
V
11 °C 10 km+ 3.500 ft 170° 170° 4 kt METAR LFOZ 271430Z AUTO 17004KT 150V210 9999 OVC035 11/03 Q1016
15:00
V
11 °C 10 km+ 4.300 ft 180° 180° 5 kt METAR LFOZ 271400Z AUTO 18005KT 9999 FEW033 BKN043 OVC210 11/03 Q1017
14:30
V
11 °C 10 km+ 3.400 ft 170° 170° 6 kt METAR LFOZ 271330Z AUTO 17006KT 9999 OVC034 11/03 Q1017
14:00
V
11 °C 10 km+ 3.900 ft 180° 180° 6 kt METAR LFOZ 271300Z AUTO 18006KT 9999 OVC039 11/03 Q1017
13:30
V
11 °C 10 km+ 4.300 ft 180° 180° 7 kt METAR LFOZ 271230Z AUTO 18007KT 9999 BKN043 OVC049 11/03 Q1018
13:00
V
10 °C 10 km+ 4.400 ft 180° 180° 6 kt METAR LFOZ 271200Z AUTO 18006KT 9999 BKN044 OVC068 10/03 Q1018
12:30
V
10 °C 10 km+ 4.600 ft 180° 180° 7 kt METAR LFOZ 271130Z AUTO 18007KT 9999 OVC046 10/03 Q1019
12:00
V
9 °C 10 km+ 4.900 ft 180° 180° 5 kt METAR LFOZ 271100Z AUTO 18005KT 9999 OVC049 09/04 Q1020
11:30
V
9 °C 10 km+ - 160° 160° 6 kt METAR LFOZ 271030Z AUTO 16006KT CAVOK 09/04 Q1020
11:00
V
8 °C 10 km+ - 150° 150° 6 kt METAR LFOZ 271000Z AUTO 15006KT CAVOK 08/05 Q1020

Wij en derden volgen je internetgedrag op onze website met cookies. Als je doorgaat, gaan we ervan uit dat je akkoord gaat met onze cookiebeleid.